createdAt,value
2018-06-03T00:02:10.910Z,82.66
2018-06-03T00:04:41.645Z,82.80
2018-06-03T00:07:12.494Z,82.54
2018-06-03T00:09:45.001Z,83.26
2018-06-03T00:12:16.028Z,83.59
2018-06-03T00:14:46.882Z,83.17
2018-06-03T00:17:17.494Z,82.94
2018-06-03T00:19:49.091Z,83.22
2018-06-03T00:22:24.814Z,83.29
2018-06-03T00:24:56.247Z,83.53
2018-06-03T00:27:27.482Z,83.45
2018-06-03T00:29:58.386Z,83.34
2018-06-03T00:32:29.361Z,83.55
2018-06-03T00:37:37.897Z,83.50
2018-06-03T00:40:09.735Z,83.88
2018-06-03T00:42:40.649Z,83.62
2018-06-03T00:45:11.690Z,84.28
2018-06-03T00:47:43.747Z,84.23
2018-06-03T00:50:17.379Z,83.95
2018-06-03T00:52:48.225Z,83.91
2018-06-03T00:55:19.925Z,83.80
2018-06-03T00:57:52.049Z,84.03
2018-06-03T01:00:23.070Z,83.92
2018-06-03T01:02:54.328Z,83.97
2018-06-03T01:05:25.391Z,83.85
2018-06-03T01:07:56.470Z,83.99
2018-06-03T01:10:28.260Z,84.04
2018-06-03T01:12:59.345Z,83.86
2018-06-03T01:15:30.612Z,83.52
2018-06-03T01:18:01.610Z,83.67
2018-06-03T01:20:32.519Z,83.93
2018-06-03T01:23:03.636Z,84.04
2018-06-03T01:25:35.577Z,84.20
2018-06-03T01:28:06.630Z,83.83
2018-06-03T01:30:37.845Z,83.68
2018-06-03T01:33:08.852Z,84.26
2018-06-03T01:35:40.413Z,84.26
2018-06-03T01:38:11.445Z,84.31
2018-06-03T01:40:43.097Z,84.30
2018-06-03T01:43:14.204Z,84.49
2018-06-03T01:45:46.213Z,84.94
2018-06-03T01:48:17.199Z,84.09
2018-06-03T01:50:48.257Z,84.25
2018-06-03T01:53:19.311Z,84.03
2018-06-03T01:55:50.370Z,84.05
2018-06-03T01:58:22.620Z,84.00
2018-06-03T02:00:59.609Z,83.50
2018-06-03T02:03:30.429Z,83.07
2018-06-03T02:06:01.447Z,82.88
2018-06-03T02:08:32.423Z,82.95
2018-06-03T02:11:03.440Z,83.11
2018-06-03T02:13:34.326Z,83.08
2018-06-03T02:16:07.091Z,83.38
2018-06-03T02:18:38.184Z,82.81
2018-06-03T02:21:09.115Z,82.71
2018-06-03T02:23:40.365Z,82.56
2018-06-03T02:26:11.304Z,82.29
2018-06-03T02:28:42.409Z,82.24
2018-06-03T02:31:13.500Z,81.71
2018-06-03T02:33:44.491Z,81.63
2018-06-03T02:36:15.488Z,82.00
2018-06-03T02:38:46.290Z,81.77
2018-06-03T02:41:18.572Z,82.06
2018-06-03T02:43:50.606Z,82.20
2018-06-03T02:46:21.489Z,81.68
2018-06-03T02:48:52.738Z,82.02
2018-06-03T02:51:25.540Z,81.44
2018-06-03T02:53:56.508Z,81.97
2018-06-03T02:56:27.453Z,80.97
2018-06-03T02:58:58.459Z,80.83
2018-06-03T03:01:29.626Z,80.80
2018-06-03T03:04:02.694Z,80.29
2018-06-03T03:06:36.100Z,78.52
2018-06-03T03:09:07.651Z,76.14
2018-06-03T03:11:38.985Z,71.53
2018-06-03T03:14:10.084Z,67.68
2018-06-03T03:16:42.112Z,64.48
2018-06-03T03:19:13.069Z,60.74
2018-06-03T03:21:44.219Z,57.14
2018-06-03T03:24:15.907Z,54.77
2018-06-03T03:26:46.860Z,52.31
2018-06-03T03:29:17.776Z,50.18
2018-06-03T03:31:49.572Z,48.81
2018-06-03T03:34:20.561Z,46.99
2018-06-03T03:36:52.481Z,45.67
2018-06-03T03:39:23.524Z,45.20
2018-06-03T03:41:54.630Z,43.52
2018-06-03T03:44:25.785Z,41.98
2018-06-03T03:49:32.736Z,40.59
2018-06-03T03:52:03.899Z,38.73
2018-06-03T03:54:34.887Z,38.15
2018-06-03T03:57:05.900Z,36.90
2018-06-03T03:59:37.893Z,37.97
2018-06-03T04:02:08.884Z,36.43
2018-06-03T04:04:41.920Z,35.26
2018-06-03T04:07:13.044Z,34.25
2018-06-03T04:09:45.903Z,34.51
2018-06-03T04:12:16.842Z,33.43
2018-06-03T04:14:47.860Z,33.31
2018-06-03T04:17:18.907Z,32.10
2018-06-03T04:22:26.099Z,32.39
2018-06-03T04:24:56.958Z,32.03
2018-06-03T04:30:04.394Z,31.56
2018-06-03T04:32:35.503Z,31.43
2018-06-03T04:35:06.856Z,31.24
2018-06-03T04:37:38.154Z,31.14
2018-06-03T04:40:09.474Z,31.89
2018-06-03T04:42:43.599Z,31.16
2018-06-03T04:45:17.945Z,31.43
2018-06-03T04:47:49.179Z,31.54
2018-06-03T04:50:20.893Z,31.47
2018-06-03T04:52:56.591Z,31.50
2018-06-03T04:55:27.567Z,31.54
2018-06-03T04:58:00.442Z,31.59
2018-06-03T05:00:34.194Z,31.18
2018-06-03T05:03:05.493Z,30.91
2018-06-03T05:05:39.698Z,30.91
2018-06-03T05:08:10.933Z,31.50
2018-06-03T05:10:42.748Z,30.72
2018-06-03T05:13:14.101Z,31.40
2018-06-03T05:15:44.926Z,30.66
2018-06-03T05:18:15.691Z,31.07
2018-06-03T05:20:46.281Z,29.81
2018-06-03T05:23:17.750Z,30.45
2018-06-03T05:28:24.749Z,31.24
2018-06-03T05:30:55.372Z,30.55
2018-06-03T05:33:25.984Z,30.00
2018-06-03T05:35:56.580Z,30.22
2018-06-03T05:38:27.583Z,29.87
2018-06-03T05:40:58.016Z,30.49
2018-06-03T05:43:30.011Z,30.15
2018-06-03T05:46:00.470Z,30.29
2018-06-03T05:48:32.733Z,30.98
2018-06-03T05:51:03.622Z,29.20
2018-06-03T05:53:34.016Z,29.66
2018-06-03T05:56:04.456Z,30.53
2018-06-03T05:58:34.989Z,30.77
2018-06-03T06:01:05.567Z,30.50
2018-06-03T06:03:36.841Z,30.04
2018-06-03T06:06:09.880Z,30.26
2018-06-03T06:08:41.120Z,30.34
2018-06-03T06:11:11.571Z,30.19
2018-06-03T06:13:42.028Z,30.21
2018-06-03T06:16:12.540Z,30.94
2018-06-03T06:18:43.279Z,31.35
2018-06-03T06:21:14.619Z,31.52
2018-06-03T06:23:46.243Z,31.74
2018-06-03T06:26:19.720Z,31.22
2018-06-03T06:28:50.185Z,32.66
2018-06-03T06:31:20.714Z,30.97
2018-06-03T06:33:51.255Z,31.39
2018-06-03T06:36:22.387Z,31.76
2018-06-03T06:38:53.358Z,31.40
2018-06-03T06:41:26.900Z,30.59
2018-06-03T06:43:57.671Z,30.49
2018-06-03T06:46:28.803Z,29.91
2018-06-03T06:48:59.266Z,30.12
2018-06-03T06:51:29.871Z,31.62
2018-06-03T06:54:00.414Z,32.62
2018-06-03T06:56:30.965Z,32.02
2018-06-03T06:59:01.477Z,31.33
2018-06-03T07:01:32.744Z,33.64
2018-06-03T07:04:04.519Z,33.44
2018-06-03T07:06:37.423Z,32.85
2018-06-03T07:09:08.953Z,32.45
2018-06-03T07:11:39.352Z,32.50
2018-06-03T07:14:09.871Z,33.51
2018-06-03T07:16:40.326Z,32.76
2018-06-03T07:19:10.777Z,33.72
2018-06-03T07:21:41.367Z,33.54
2018-06-03T07:24:11.904Z,33.34
2018-06-03T07:26:43.556Z,33.17
2018-06-03T07:29:14.067Z,33.86
2018-06-03T07:31:44.562Z,33.90
2018-06-03T07:34:15.821Z,36.05
2018-06-03T07:36:46.313Z,36.46
2018-06-03T07:39:19.365Z,36.22
2018-06-03T07:41:51.040Z,35.50
2018-06-03T07:44:23.332Z,36.04
2018-06-03T07:47:00.414Z,37.05
2018-06-03T07:49:30.881Z,38.35
2018-06-03T07:52:02.367Z,40.47
2018-06-03T07:54:32.917Z,38.90
2018-06-03T07:57:03.866Z,42.22
2018-06-03T07:59:34.688Z,40.76
2018-06-03T08:02:07.522Z,45.07
2018-06-03T08:04:38.229Z,49.09
2018-06-03T08:07:11.091Z,50.47
2018-06-03T08:09:42.879Z,49.38
2018-06-03T08:12:15.339Z,52.21
2018-06-03T08:14:52.550Z,53.44
2018-06-03T08:17:25.702Z,54.08
2018-06-03T08:19:56.466Z,56.65
2018-06-03T08:22:27.300Z,58.35
2018-06-03T08:24:58.845Z,59.72
2018-06-03T08:27:30.791Z,59.27
2018-06-03T08:30:01.535Z,59.52
2018-06-03T08:32:32.501Z,63.30
2018-06-03T08:35:05.502Z,62.42
2018-06-03T08:37:37.418Z,62.28
2018-06-03T08:40:09.538Z,63.23
2018-06-03T08:42:40.871Z,63.76
2018-06-03T08:45:11.339Z,63.39
2018-06-03T08:47:43.744Z,63.77
2018-06-03T08:50:16.838Z,64.83
2018-06-03T08:52:47.889Z,67.04
2018-06-03T08:55:18.332Z,67.43
2018-06-03T08:57:49.005Z,65.71
2018-06-03T09:00:19.613Z,67.50
2018-06-03T09:02:51.065Z,65.92
2018-06-03T09:05:21.602Z,65.17
2018-06-03T09:07:52.925Z,64.04
2018-06-03T09:10:23.418Z,64.12
2018-06-03T09:12:55.265Z,64.40
2018-06-03T09:15:26.028Z,65.33
2018-06-03T09:17:57.743Z,64.91
2018-06-03T09:20:28.716Z,65.35
2018-06-03T09:23:00.761Z,66.07
2018-06-03T09:25:33.208Z,64.96
2018-06-03T09:28:03.926Z,66.90
2018-06-03T09:30:35.448Z,67.52
2018-06-03T09:33:07.513Z,70.24
2018-06-03T09:35:39.055Z,69.30
2018-06-03T09:38:11.846Z,69.06
2018-06-03T09:40:43.511Z,66.82
2018-06-03T09:43:14.647Z,67.43
2018-06-03T09:45:45.697Z,68.95
2018-06-03T09:48:17.974Z,66.27
2018-06-03T09:50:49.042Z,66.17
2018-06-03T09:53:20.442Z,65.76
2018-06-03T09:55:51.584Z,66.34
2018-06-03T10:00:59.528Z,63.52
2018-06-03T10:03:31.238Z,66.09
2018-06-03T10:06:03.206Z,66.43
2018-06-03T10:08:34.351Z,66.53
2018-06-03T10:11:06.392Z,66.80
2018-06-03T10:13:37.414Z,68.70
2018-06-03T10:16:09.681Z,69.86
2018-06-03T10:18:41.497Z,68.33
2018-06-03T10:21:13.799Z,68.40
2018-06-03T10:23:44.958Z,67.85
2018-06-03T10:26:16.532Z,66.85
2018-06-03T10:28:47.504Z,67.94
2018-06-03T10:31:28.253Z,67.66
2018-06-03T10:33:59.176Z,68.48
2018-06-03T10:36:33.128Z,67.62
2018-06-03T10:39:04.126Z,66.69
2018-06-03T10:41:36.108Z,68.08
2018-06-03T10:44:08.221Z,68.05
2018-06-03T10:46:39.310Z,68.27
2018-06-03T10:49:10.210Z,67.23
2018-06-03T10:54:17.929Z,67.53
2018-06-03T10:59:25.832Z,68.66
2018-06-03T11:01:56.973Z,68.70
2018-06-03T11:04:30.096Z,69.24
2018-06-03T11:07:02.119Z,68.44
2018-06-03T11:09:33.242Z,68.96
2018-06-03T11:12:04.554Z,68.15
2018-06-03T11:14:36.896Z,69.19
2018-06-03T11:17:08.727Z,68.45
2018-06-03T11:19:42.387Z,68.58
2018-06-03T11:22:13.261Z,69.03
2018-06-03T11:24:45.341Z,68.52
2018-06-03T11:27:16.635Z,67.52
2018-06-03T11:29:48.590Z,67.38
2018-06-03T11:32:20.367Z,68.12
2018-06-03T11:34:52.725Z,68.78
2018-06-03T11:37:24.745Z,66.96
2018-06-03T11:40:07.680Z,66.54
2018-06-03T11:42:39.498Z,68.33
2018-06-03T11:45:11.439Z,68.87
2018-06-03T11:47:43.592Z,66.85
2018-06-03T11:50:28.778Z,69.20
2018-06-03T11:53:00.256Z,69.39
2018-06-03T11:55:31.503Z,68.37
2018-06-03T11:59:10.746Z,69.02
2018-06-03T12:04:18.940Z,69.78
2018-06-03T12:06:52.719Z,68.73
2018-06-03T12:09:28.866Z,68.14
2018-06-03T12:12:18.217Z,69.34
2018-06-03T12:14:55.072Z,68.97
2018-06-03T12:17:28.695Z,67.94
2018-06-03T12:20:01.923Z,68.19
2018-06-03T12:22:33.900Z,68.66
2018-06-03T12:25:05.486Z,67.61
2018-06-03T12:27:40.010Z,67.27
2018-06-03T12:30:13.408Z,67.04
2018-06-03T12:32:55.574Z,70.69
2018-06-03T12:35:32.041Z,70.20
2018-06-03T12:38:22.054Z,70.85
2018-06-03T12:40:57.712Z,70.36
2018-06-03T12:43:30.221Z,68.59
2018-06-03T12:46:02.109Z,69.43
2018-06-03T12:48:35.576Z,68.19
2018-06-03T12:51:10.016Z,67.85
2018-06-03T12:53:42.398Z,67.07
2018-06-03T12:56:13.945Z,69.08
2018-06-03T12:58:47.197Z,69.30
2018-06-03T13:01:19.936Z,67.32
2018-06-03T13:03:51.244Z,67.65
2018-06-03T13:06:22.263Z,68.70
2018-06-03T13:08:54.706Z,68.22
2018-06-03T13:11:29.061Z,68.19
2018-06-03T13:14:00.601Z,68.61
2018-06-03T13:16:36.279Z,68.18
2018-06-03T13:19:10.293Z,67.68
2018-06-03T13:21:45.074Z,67.03
2018-06-03T13:24:20.004Z,66.25
2018-06-03T13:26:51.990Z,67.28
2018-06-03T13:29:24.000Z,64.38
2018-06-03T13:31:57.917Z,65.18
2018-06-03T13:34:32.682Z,65.66
2018-06-03T13:37:06.384Z,65.12
2018-06-03T13:39:38.154Z,64.85
2018-06-03T13:42:09.000Z,65.57
2018-06-03T13:44:41.585Z,65.79
2018-06-03T13:47:12.514Z,67.04
2018-06-03T13:49:44.315Z,67.65
2018-06-03T13:52:15.770Z,68.40
2018-06-03T13:54:49.608Z,69.04
2018-06-03T13:57:21.714Z,69.54
2018-06-03T13:59:55.958Z,69.08
2018-06-03T14:02:27.394Z,67.86
2018-06-03T14:04:59.197Z,67.13
2018-06-03T14:07:30.137Z,67.59
2018-06-03T14:10:01.834Z,66.99
2018-06-03T14:12:33.671Z,67.64
2018-06-03T14:15:05.568Z,70.01
2018-06-03T14:17:37.005Z,68.84
2018-06-03T14:20:09.382Z,69.76
2018-06-03T14:22:40.163Z,71.23
2018-06-03T14:25:12.248Z,70.11
2018-06-03T14:27:43.450Z,70.16
2018-06-03T14:30:14.905Z,70.89
2018-06-03T14:32:45.673Z,71.45
2018-06-03T14:35:19.153Z,71.70
2018-06-03T14:37:50.068Z,72.21
2018-06-03T14:40:22.836Z,71.38
2018-06-03T14:42:53.594Z,71.69
2018-06-03T14:45:25.252Z,72.60
2018-06-03T14:47:56.790Z,73.98
2018-06-03T14:50:28.302Z,73.86
2018-06-03T14:52:59.172Z,74.86
2018-06-03T14:55:29.900Z,74.18
2018-06-03T14:58:00.926Z,74.39
2018-06-03T15:03:08.232Z,73.95
2018-06-03T15:05:38.914Z,73.92
2018-06-03T15:08:15.828Z,73.63
2018-06-03T15:10:47.221Z,72.81
2018-06-03T15:13:18.124Z,73.14
2018-06-03T15:15:48.989Z,73.24
2018-06-03T15:18:19.997Z,73.65
2018-06-03T15:20:50.879Z,73.92
2018-06-03T15:25:58.456Z,73.41
2018-06-03T15:28:29.246Z,74.20
2018-06-03T15:31:00.162Z,74.43
2018-06-03T15:33:30.930Z,73.52
2018-06-03T15:36:04.303Z,74.34
2018-06-03T15:38:35.937Z,73.74
2018-06-03T15:41:07.192Z,74.03
2018-06-03T15:43:38.147Z,74.16
2018-06-03T15:46:09.344Z,75.14
2018-06-03T15:48:39.838Z,74.95
2018-06-03T15:53:46.259Z,76.07
2018-06-03T15:56:16.868Z,77.20
2018-06-03T15:58:48.567Z,77.51
2018-06-03T16:01:19.349Z,77.81
2018-06-03T16:06:28.332Z,79.26
2018-06-03T16:09:01.174Z,78.94
2018-06-03T16:11:32.922Z,79.39
2018-06-03T16:14:04.955Z,79.20
2018-06-03T16:16:35.682Z,78.99
2018-06-03T16:19:08.729Z,78.99
2018-06-03T16:21:39.902Z,77.14
2018-06-03T16:24:11.579Z,76.37
2018-06-03T16:26:42.663Z,77.01
2018-06-03T16:29:13.849Z,77.50
2018-06-03T16:31:46.359Z,78.18
2018-06-03T16:34:19.371Z,77.67
2018-06-03T16:36:51.539Z,78.34
2018-06-03T16:39:22.372Z,78.36
2018-06-03T16:41:53.967Z,78.53
2018-06-03T16:44:26.082Z,78.71
2018-06-03T16:46:57.506Z,79.02
2018-06-03T16:49:29.055Z,79.63
2018-06-03T16:52:00.251Z,80.05
2018-06-03T16:54:37.475Z,79.73
2018-06-03T16:57:08.292Z,79.74
2018-06-03T17:02:18.826Z,80.79
2018-06-03T17:04:49.851Z,80.56
2018-06-03T17:07:20.906Z,81.20
2018-06-03T17:09:53.113Z,81.50
2018-06-03T17:15:00.582Z,81.17
2018-06-03T17:17:32.429Z,81.35
2018-06-03T17:20:03.219Z,81.95
2018-06-03T17:22:37.671Z,82.30
2018-06-03T17:25:08.482Z,82.55
2018-06-03T17:30:15.122Z,83.79
2018-06-03T17:32:46.335Z,83.85
2018-06-03T17:35:17.182Z,83.97
2018-06-03T17:37:48.068Z,84.52
2018-06-03T17:42:55.216Z,84.86
2018-06-03T17:45:26.179Z,85.03
2018-06-03T17:47:58.053Z,85.33
2018-06-03T17:50:29.096Z,85.12
2018-06-03T17:53:00.001Z,85.27
2018-06-03T17:55:30.781Z,85.17
2018-06-03T17:58:02.701Z,84.96
2018-06-03T18:00:33.534Z,84.96
2018-06-03T18:05:42.812Z,85.40
2018-06-03T18:08:14.815Z,85.78
2018-06-03T18:10:45.893Z,85.63
2018-06-03T18:13:16.471Z,84.83
2018-06-03T18:15:47.139Z,84.91
2018-06-03T18:18:18.053Z,84.69
2018-06-03T18:20:51.567Z,84.76
2018-06-03T18:23:22.486Z,85.11
2018-06-03T18:25:54.161Z,85.38
2018-06-03T18:28:25.096Z,85.29
2018-06-03T18:30:58.430Z,84.96
2018-06-03T18:33:29.257Z,84.81
2018-06-03T18:36:00.248Z,84.70
2018-06-03T18:38:31.297Z,85.60
2018-06-03T18:41:02.304Z,86.15
2018-06-03T18:43:33.061Z,85.55
2018-06-03T18:46:04.768Z,86.11
2018-06-03T18:48:35.717Z,86.36
2018-06-03T18:51:08.769Z,86.19
2018-06-03T18:53:39.709Z,85.86
2018-06-03T18:56:11.522Z,85.39
2018-06-03T18:58:42.212Z,85.07
2018-06-03T19:01:18.395Z,85.16
2018-06-03T19:03:49.234Z,85.22
2018-06-03T19:06:20.588Z,85.04
2018-06-03T19:08:51.702Z,85.74
2018-06-03T19:11:23.089Z,86.22
2018-06-03T19:13:54.380Z,85.89
2018-06-03T19:16:25.500Z,85.59
2018-06-03T19:18:57.752Z,85.97
2018-06-03T19:21:28.657Z,85.65
2018-06-03T19:23:59.581Z,85.11
2018-06-03T19:26:31.582Z,85.50
2018-06-03T19:29:09.340Z,86.27
2018-06-03T19:31:44.246Z,85.73
2018-06-03T19:34:15.655Z,85.88
2018-06-03T19:36:50.139Z,86.37
2018-06-03T19:39:21.166Z,86.40
2018-06-03T19:41:53.044Z,86.32
2018-06-03T19:44:23.886Z,86.80
2018-06-03T19:46:57.760Z,87.28
2018-06-03T19:49:28.567Z,87.37
2018-06-03T19:51:59.452Z,88.02
2018-06-03T19:54:30.517Z,88.41
2018-06-03T19:57:01.554Z,89.01
2018-06-03T19:59:32.501Z,89.78
2018-06-03T20:02:03.756Z,90.09
2018-06-03T20:04:34.865Z,90.00
2018-06-03T20:07:06.078Z,91.05
2018-06-03T20:09:37.101Z,91.73
2018-06-03T20:12:08.252Z,91.69
2018-06-03T20:14:42.427Z,91.48
2018-06-03T20:17:14.590Z,90.76
2018-06-03T20:19:45.644Z,89.26
2018-06-03T20:22:17.857Z,88.51
2018-06-03T20:24:48.930Z,88.42
2018-06-03T20:27:21.610Z,88.19
2018-06-03T20:29:52.475Z,88.11
2018-06-03T20:32:23.574Z,87.74
2018-06-03T20:34:54.577Z,87.94
2018-06-03T20:37:25.565Z,87.61
2018-06-03T20:39:56.993Z,87.47
2018-06-03T20:42:31.328Z,87.76
2018-06-03T20:45:02.627Z,88.04
2018-06-03T20:47:35.495Z,87.36
2018-06-03T20:50:07.070Z,87.58
2018-06-03T20:55:13.753Z,87.51
2018-06-03T20:57:45.797Z,86.88
2018-06-03T21:00:16.576Z,87.17
2018-06-03T21:02:47.562Z,87.97
2018-06-03T21:05:18.884Z,87.99
2018-06-03T21:07:49.989Z,87.57
2018-06-03T21:24:32.529Z,92.96
2018-06-03T21:27:03.509Z,95.14
2018-06-03T21:29:34.607Z,96.18
2018-06-03T21:32:05.815Z,97.22
2018-06-03T21:34:36.965Z,99.83
2018-06-03T21:37:07.993Z,100.00
2018-06-03T21:39:38.873Z,98.66
2018-06-03T21:42:09.776Z,97.98
2018-06-03T21:44:41.962Z,98.23
2018-06-03T21:47:12.930Z,99.66
2018-06-03T21:49:43.934Z,99.14
2018-06-03T21:52:14.904Z,99.39
2018-06-03T21:54:46.069Z,99.42
2018-06-03T21:57:16.912Z,100.00
2018-06-03T21:59:48.724Z,100.00
2018-06-03T22:02:19.753Z,99.63
2018-06-03T22:04:50.832Z,99.82
2018-06-03T22:07:21.503Z,99.43
2018-06-03T22:09:53.285Z,99.20
2018-06-03T22:12:24.087Z,100.00
2018-06-03T22:14:58.081Z,100.00
2018-06-03T22:17:29.758Z,100.00
2018-06-03T22:20:01.482Z,100.00
2018-06-03T22:22:32.403Z,100.00
2018-06-03T22:25:04.876Z,100.00
2018-06-03T22:27:35.772Z,100.00
2018-06-03T22:30:07.480Z,100.00
2018-06-03T22:32:38.595Z,100.00
2018-06-03T22:35:09.787Z,100.00
2018-06-03T22:37:40.676Z,100.00
2018-06-03T22:40:12.342Z,100.00
2018-06-03T22:42:43.146Z,100.00
2018-06-03T22:45:14.924Z,100.00
2018-06-03T22:47:45.785Z,100.00
2018-06-03T22:50:18.486Z,100.00
2018-06-03T22:52:49.489Z,100.00
2018-06-03T22:55:20.353Z,100.00
2018-06-03T22:57:52.838Z,100.00
2018-06-03T23:00:28.136Z,100.00
2018-06-03T23:03:04.059Z,100.00
2018-06-03T23:05:37.631Z,100.00
2018-06-03T23:08:08.667Z,100.00
2018-06-03T23:10:39.614Z,100.00
2018-06-03T23:13:10.535Z,100.00
2018-06-03T23:15:42.178Z,100.00
2018-06-03T23:18:13.238Z,100.00
2018-06-03T23:20:45.893Z,100.00
2018-06-03T23:23:16.749Z,100.00
2018-06-03T23:25:47.784Z,100.00
2018-06-03T23:28:18.497Z,100.00
2018-06-03T23:30:51.195Z,100.00
2018-06-03T23:33:22.150Z,100.00
2018-06-03T23:35:53.788Z,100.00
2018-06-03T23:38:25.413Z,100.00
2018-06-03T23:40:59.087Z,100.00
2018-06-03T23:43:30.027Z,100.00
2018-06-03T23:46:01.203Z,100.00
2018-06-03T23:48:32.250Z,100.00
2018-06-03T23:53:39.392Z,100.00
2018-06-03T23:56:10.426Z,100.00
2018-06-03T23:58:41.167Z,100.00
